Time;durP1;ratioP1;P1;durP2;ratioP2;P2;SDS_P1;SDS_P2;PMS_P1;PMS_P2;Temp;Humidity;BMP_temperature;BMP_pressure;BME280_temperature;BME280_humidity;BME280_pressure;Samples;Min_cycle;Max_cycle;Signal;HPM_P1;HPM_P2
2022/08/21 00:00:38;;;;;;;;;3.67;3.67;;;;;-147.47;100.00;64613.53;5032427;28;45640;-78
2022/08/21 00:03:06;;;;;;;;;4.33;4.00;;;;;-147.47;100.00;64613.53;5027198;28;45511;-77
2022/08/21 00:05:36;;;;;;;;;4.67;4.33;;;;;-147.47;100.00;64613.53;5033187;28;45635;-78
2022/08/21 00:08:01;;;;;;;;;2.67;2.33;;;;;-147.47;100.00;64613.53;5033041;28;45706;-77
2022/08/21 00:10:27;;;;;;;;;5.00;2.67;;;;;-147.47;100.00;64613.53;5033880;28;45522;-78
2022/08/21 00:12:52;;;;;;;;;6.00;4.33;;;;;-147.47;100.00;64613.53;5033789;28;45368;-78
2022/08/21 00:15:24;;;;;;;;;6.67;4.00;;;;;-147.47;100.00;64613.53;5038917;28;46156;-77
2022/08/21 00:17:49;;;;;;;;;6.00;3.00;;;;;-147.47;100.00;64613.53;5041462;28;45437;-77
2022/08/21 00:20:16;;;;;;;;;4.00;4.00;;;;;-147.47;100.00;64613.53;5033696;28;45406;-77
2022/08/21 00:22:42;;;;;;;;;5.00;4.00;;;;;-147.47;100.00;64613.53;5033855;28;45363;-76
2022/08/21 00:25:08;;;;;;;;;3.67;3.67;;;;;-147.47;100.00;64613.53;5030289;28;46510;-76
2022/08/21 00:27:34;;;;;;;;;4.00;4.00;;;;;-147.47;100.00;64613.53;5027536;28;45550;-78
2022/08/21 00:30:00;;;;;;;;;3.67;3.33;;;;;-147.47;100.00;64613.53;5025775;28;45888;-76
2022/08/21 00:32:27;;;;;;;;;5.00;3.00;;;;;-147.47;100.00;64613.53;5030044;28;45474;-78
2022/08/21 00:34:53;;;;;;;;;3.00;3.00;;;;;-147.47;100.00;64613.53;5033102;28;45456;-77
2022/08/21 00:37:19;;;;;;;;;4.67;4.00;;;;;-147.47;100.00;64613.53;5034008;28;45437;-77
2022/08/21 00:39:45;;;;;;;;;5.00;4.00;;;;;-147.47;100.00;64613.53;5033498;28;45700;-76
2022/08/21 00:42:17;;;;;;;;;6.33;4.33;;;;;-147.47;100.00;64613.53;5018358;28;45734;-77
2022/08/21 00:44:44;;;;;;;;;5.00;4.00;;;;;-147.47;100.00;64613.53;5018691;28;46589;-77
2022/08/21 00:47:11;;;;;;;;;5.00;4.67;;;;;-147.47;100.00;64613.53;5015246;28;45494;-78
2022/08/21 00:49:38;;;;;;;;;4.67;4.67;;;;;-147.47;100.00;64613.53;5034400;28;45393;-77
2022/08/21 00:52:06;;;;;;;;;5.33;4.00;;;;;-147.47;100.00;64613.53;5004213;28;46817;-78
2022/08/21 00:54:33;;;;;;;;;3.67;2.33;;;;;-147.47;100.00;64613.53;5023595;28;45731;-78
2022/08/21 00:57:04;;;;;;;;;2.67;2.67;;;;;-147.47;100.00;64613.53;5028717;28;45626;-79
2022/08/21 00:59:34;;;;;;;;;4.33;4.00;;;;;-147.47;100.00;64613.53;5027568;28;45411;-78
2022/08/21 01:02:00;;;;;;;;;4.33;4.00;;;;;-147.47;100.00;64613.53;5014826;28;45717;-79
2022/08/21 01:04:27;;;;;;;;;3.00;3.00;;;;;-147.47;100.00;64613.53;5022430;28;45761;-78
2022/08/21 01:06:54;;;;;;;;;4.00;4.00;;;;;-147.47;100.00;64613.53;5003228;28;45787;-79
2022/08/21 01:09:20;;;;;;;;;4.33;3.00;;;;;-147.47;100.00;64613.53;5017670;28;45421;-76
2022/08/21 01:11:46;;;;;;;;;7.33;4.00;;;;;-147.47;100.00;64613.53;5021852;28;44915;-77
2022/08/21 01:14:14;;;;;;;;;3.00;3.00;;;;;-147.47;100.00;64613.53;5015892;28;46935;-76
2022/08/21 01:16:47;;;;;;;;;5.00;5.00;;;;;-147.47;100.00;64613.53;5021870;28;45431;-77
2022/08/21 01:19:14;;;;;;;;;2.00;2.00;;;;;-147.47;100.00;64613.53;5023143;28;45399;-74
2022/08/21 01:21:40;;;;;;;;;4.33;4.33;;;;;-147.47;100.00;64613.53;5019170;28;45505;-75
2022/08/21 01:24:06;;;;;;;;;4.67;4.00;;;;;-147.47;100.00;64613.53;5004971;28;48074;-76
2022/08/21 01:26:35;;;;;;;;;5.00;4.33;;;;;-147.47;100.00;64613.53;5013668;28;45356;-76
2022/08/21 01:29:11;;;;;;;;;6.00;6.00;;;;;-147.47;100.00;64613.53;5018080;28;45451;-76
2022/08/21 01:31:38;;;;;;;;;3.00;2.00;;;;;-147.47;100.00;64613.53;5018584;28;45516;-76
2022/08/21 01:34:05;;;;;;;;;4.33;4.33;;;;;-147.47;100.00;64613.53;5024514;28;45431;-77
2022/08/21 01:36:32;;;;;;;;;4.67;4.00;;;;;-147.47;100.00;64613.53;5001797;28;45888;-77
2022/08/21 01:38:57;;;;;;;;;5.00;3.00;;;;;-147.47;100.00;64613.53;5023992;28;45309;-77
2022/08/21 01:41:23;;;;;;;;;6.00;4.33;;;;;-147.47;100.00;64613.53;5034813;28;45881;-78
2022/08/21 01:43:49;;;;;;;;;7.33;4.33;;;;;-147.47;100.00;64613.53;5034739;28;46303;-77
2022/08/21 01:46:15;;;;;;;;;3.67;3.67;;;;;-147.47;100.00;64613.53;5000104;28;45844;-79
2022/08/21 01:48:41;;;;;;;;;5.67;4.33;;;;;-147.47;100.00;64613.53;5015301;28;45848;-78
2022/08/21 01:51:07;;;;;;;;;5.00;5.00;;;;;-147.47;100.00;64613.53;5011414;28;45789;-77
2022/08/21 01:53:36;;;;;;;;;3.67;3.67;;;;;-147.47;100.00;64613.53;5016616;28;46561;-76
2022/08/21 01:56:06;;;;;;;;;4.00;4.00;;;;;-147.47;100.00;64613.53;5034412;28;45645;-77
2022/08/21 01:58:33;;;;;;;;;6.00;5.00;;;;;-147.47;100.00;64613.53;5006787;28;45429;-77
2022/08/21 02:01:01;;;;;;;;;5.33;4.67;;;;;-147.47;100.00;64613.53;5013714;28;46113;-77
2022/08/21 02:03:27;;;;;;;;;6.67;4.00;;;;;-147.47;100.00;64613.53;5027160;28;45880;-72
2022/08/21 02:05:52;;;;;;;;;6.67;6.00;;;;;-147.47;100.00;64613.53;5016613;28;45404;-73
2022/08/21 02:08:18;;;;;;;;;4.00;4.00;;;;;-147.47;100.00;64613.53;5027092;28;45987;-74
2022/08/21 02:10:43;;;;;;;;;4.00;4.00;;;;;-147.47;100.00;64613.53;5011372;28;45497;-72
2022/08/21 02:13:09;;;;;;;;;4.67;3.33;;;;;-147.47;100.00;64613.53;5006429;28;47580;-73
2022/08/21 02:15:35;;;;;;;;;4.67;3.33;;;;;-147.47;100.00;64613.53;5010682;28;45591;-75
2022/08/21 02:18:04;;;;;;;;;8.00;6.67;;;;;-147.47;100.00;64613.53;5026878;28;46442;-72
2022/08/21 02:20:39;;;;;;;;;4.00;4.00;;;;;-147.47;100.00;64613.53;5025119;28;45506;-71
2022/08/21 02:23:06;;;;;;;;;3.67;3.00;;;;;-147.47;100.00;64613.53;5031472;28;45684;-73
2022/08/21 02:25:33;;;;;;;;;3.33;3.33;;;;;-147.47;100.00;64613.53;5026893;28;45900;-73
2022/08/21 02:28:02;;;;;;;;;5.00;5.00;;;;;-147.47;100.00;64613.53;5024608;28;45385;-72
2022/08/21 02:30:38;;;;;;;;;4.00;4.00;;;;;-147.47;100.00;64613.53;5022517;28;45408;-73
2022/08/21 02:33:05;;;;;;;;;3.00;3.00;;;;;-147.47;100.00;64613.53;5009894;28;47599;-72
2022/08/21 02:35:31;;;;;;;;;5.67;5.33;;;;;-147.47;100.00;64613.53;5024079;28;45905;-73
2022/08/21 02:38:00;;;;;;;;;8.00;6.00;;;;;-147.47;100.00;64613.53;5028897;28;45350;-73
2022/08/21 02:40:30;;;;;;;;;5.00;5.00;;;;;-147.47;100.00;64613.53;5024893;28;45775;-73
2022/08/21 02:42:57;;;;;;;;;7.00;5.00;;;;;-147.47;100.00;64613.53;5026157;28;45368;-73
2022/08/21 02:45:23;;;;;;;;;7.00;6.00;;;;;-147.47;100.00;64613.53;5013386;28;45286;-72
2022/08/21 02:47:54;;;;;;;;;5.00;3.67;;;;;-147.47;100.00;64613.53;5028369;28;45753;-74
2022/08/21 02:50:22;;;;;;;;;4.00;4.00;;;;;-147.47;100.00;64613.53;5032440;28;45631;-73
2022/08/21 02:52:49;;;;;;;;;8.33;4.00;;;;;-147.47;100.00;64613.53;5030352;28;46495;-73
2022/08/21 02:55:15;;;;;;;;;3.33;3.33;;;;;-147.47;100.00;64613.53;5029102;28;45917;-73
2022/08/21 02:57:40;;;;;;;;;5.00;5.00;;;;;-147.47;100.00;64613.53;5032668;28;45503;-73
2022/08/21 03:00:07;;;;;;;;;7.33;3.67;;;;;-147.47;100.00;64613.53;5029780;28;45627;-73
2022/08/21 03:02:34;;;;;;;;;5.67;4.67;;;;;-147.47;100.00;64613.53;5023774;28;45840;-72
2022/08/21 03:05:00;;;;;;;;;4.33;4.00;;;;;-147.47;100.00;64613.53;5031046;28;45734;-76
2022/08/21 03:07:26;;;;;;;;;8.33;5.33;;;;;-147.47;100.00;64613.53;5024296;28;45761;-76
2022/08/21 03:09:51;;;;;;;;;3.67;3.67;;;;;-147.47;100.00;64613.53;5011681;28;45508;-77
2022/08/21 03:12:17;;;;;;;;;7.67;2.33;;;;;-147.47;100.00;64613.53;5023520;28;46170;-77
2022/08/21 03:14:42;;;;;;;;;5.00;4.00;;;;;-147.47;100.00;64613.53;5033941;28;45426;-77
2022/08/21 03:17:08;;;;;;;;;5.33;4.00;;;;;-147.47;100.00;64613.53;5020354;28;45793;-77
2022/08/21 03:19:33;;;;;;;;;6.33;5.67;;;;;-147.47;100.00;64613.53;5002066;28;47483;-77
2022/08/21 03:21:59;;;;;;;;;3.33;3.00;;;;;-147.47;100.00;64613.53;5029514;28;45313;-77
2022/08/21 03:24:25;;;;;;;;;4.00;3.00;;;;;-147.47;100.00;64613.53;5023062;28;45779;-77
2022/08/21 03:26:50;;;;;;;;;4.33;2.00;;;;;-147.47;100.00;64613.53;5002162;28;45549;-76
2022/08/21 03:29:16;;;;;;;;;3.33;3.33;;;;;-147.47;100.00;64613.53;5043661;28;45423;-77
2022/08/21 03:31:42;;;;;;;;;6.33;4.67;;;;;-147.47;100.00;64613.53;5026133;28;46645;-75
2022/08/21 03:34:07;;;;;;;;;5.00;4.00;;;;;-147.47;100.00;64613.53;5029453;28;45493;-75
2022/08/21 03:36:33;;;;;;;;;4.33;4.33;;;;;-147.47;100.00;64613.53;5031396;28;45609;-77
2022/08/21 03:38:58;;;;;;;;;5.00;3.00;;;;;-147.47;100.00;64613.53;5026696;28;45782;-77
2022/08/21 03:41:24;;;;;;;;;4.33;4.33;;;;;-147.47;100.00;64613.53;5035491;28;45406;-77
2022/08/21 03:43:49;;;;;;;;;5.67;3.67;;;;;-147.47;100.00;64613.53;5027141;28;45354;-76
2022/08/21 03:46:14;;;;;;;;;4.00;3.00;;;;;-147.47;100.00;64613.53;5030911;28;45387;-76
2022/08/21 03:48:40;;;;;;;;;4.00;4.00;;;;;-147.47;100.00;64613.53;5011287;28;46133;-78
2022/08/21 03:51:06;;;;;;;;;7.00;4.33;;;;;-147.47;100.00;64613.53;5016985;28;45721;-76
2022/08/21 03:53:32;;;;;;;;;4.33;4.00;;;;;-147.47;100.00;64613.53;5035324;28;45430;-76
2022/08/21 03:55:58;;;;;;;;;10.00;4.00;;;;;-147.47;100.00;64613.53;5029765;28;45552;-77
2022/08/21 03:58:27;;;;;;;;;8.00;6.33;;;;;-147.47;100.00;64613.53;5026651;28;45769;-76
2022/08/21 04:00:56;;;;;;;;;3.33;2.33;;;;;-147.47;100.00;64613.53;5034521;28;45718;-75
2022/08/21 04:03:22;;;;;;;;;3.67;3.67;;;;;-147.47;100.00;64613.53;5032127;28;45801;-75
2022/08/21 04:05:47;;;;;;;;;6.67;4.00;;;;;-147.47;100.00;64613.53;5034989;28;45626;-76
2022/08/21 04:08:14;;;;;;;;;7.33;5.00;;;;;-147.47;100.00;64613.53;5014082;28;45584;-77
2022/08/21 04:10:40;;;;;;;;;5.00;5.00;;;;;-147.47;100.00;64613.53;5029643;28;45566;-76
2022/08/21 04:13:08;;;;;;;;;5.33;3.67;;;;;-147.47;100.00;64613.53;5013492;28;45749;-77
2022/08/21 04:15:34;;;;;;;;;4.33;3.33;;;;;-147.47;100.00;64613.53;5029833;28;45472;-77
2022/08/21 04:17:59;;;;;;;;;5.33;3.00;;;;;-147.47;100.00;64613.53;5018333;28;45810;-76
2022/08/21 04:20:25;;;;;;;;;5.00;3.67;;;;;-147.47;100.00;64613.53;5006813;28;45671;-73
2022/08/21 04:22:52;;;;;;;;;3.00;3.00;;;;;-147.47;100.00;64613.53;5012736;28;45670;-73
2022/08/21 04:25:20;;;;;;;;;9.33;3.33;;;;;-147.47;100.00;64613.53;5033079;28;45684;-73
2022/08/21 04:27:46;;;;;;;;;4.33;4.33;;;;;-147.47;100.00;64613.53;5026075;28;46024;-73
2022/08/21 04:30:13;;;;;;;;;3.00;2.67;;;;;-147.47;100.00;64613.53;5025125;28;45490;-73
2022/08/21 04:32:43;;;;;;;;;5.00;4.00;;;;;-147.47;100.00;64613.53;5020627;28;45561;-73
2022/08/21 04:35:10;;;;;;;;;4.67;4.00;;;;;-147.47;100.00;64613.53;5016899;28;45530;-71
2022/08/21 04:37:36;;;;;;;;;5.00;4.00;;;;;-147.47;100.00;64613.53;5013728;28;45535;-73
2022/08/21 04:40:03;;;;;;;;;7.00;4.33;;;;;-147.47;100.00;64613.53;5032184;28;48544;-72
2022/08/21 04:42:29;;;;;;;;;3.67;3.67;;;;;-147.47;100.00;64613.53;5013907;28;45840;-73
2022/08/21 04:44:56;;;;;;;;;5.67;4.00;;;;;-147.47;100.00;64613.53;5012539;28;45463;-73
2022/08/21 04:47:21;;;;;;;;;6.00;4.33;;;;;-147.47;100.00;64613.53;5027978;28;45696;-72
2022/08/21 04:49:48;;;;;;;;;4.00;4.00;;;;;-147.47;100.00;64613.53;5033682;28;46661;-72
2022/08/21 04:52:18;;;;;;;;;6.00;5.00;;;;;-147.47;100.00;64613.53;5027677;28;45436;-73
2022/08/21 04:54:46;;;;;;;;;4.67;4.00;;;;;-147.47;100.00;64613.53;5032008;28;45524;-73
2022/08/21 04:57:15;;;;;;;;;4.00;3.00;;;;;-147.47;100.00;64613.53;5030316;28;45874;-73
2022/08/21 04:59:45;;;;;;;;;4.00;4.00;;;;;-147.47;100.00;64613.53;5016918;28;45573;-72
2022/08/21 05:02:12;;;;;;;;;4.33;4.00;;;;;-147.47;100.00;64613.53;5023784;28;45471;-74
2022/08/21 05:04:47;;;;;;;;;3.67;3.00;;;;;-147.47;100.00;64613.53;5041774;28;45423;-73
2022/08/21 05:07:18;;;;;;;;;6.67;5.00;;;;;-147.47;100.00;64613.53;5027651;28;45451;-72
2022/08/21 05:09:44;;;;;;;;;4.00;3.00;;;;;-147.47;100.00;64613.53;5033337;28;45625;-73
2022/08/21 05:12:10;;;;;;;;;6.33;4.00;;;;;-147.47;100.00;64613.53;5033172;28;45376;-74
2022/08/21 05:14:35;;;;;;;;;4.67;4.33;;;;;-147.47;100.00;64613.53;5033352;28;45742;-74
2022/08/21 05:17:01;;;;;;;;;2.67;2.67;;;;;-147.47;100.00;64613.53;5033517;28;45559;-77
2022/08/21 05:19:27;;;;;;;;;4.33;4.33;;;;;-147.47;100.00;64613.53;5005170;28;46381;-77
2022/08/21 05:21:53;;;;;;;;;3.33;3.33;;;;;-147.47;100.00;64613.53;5034235;28;45833;-77
2022/08/21 05:24:18;;;;;;;;;5.33;4.00;;;;;-147.47;100.00;64613.53;5032878;28;45809;-76
2022/08/21 05:26:44;;;;;;;;;6.00;5.00;;;;;-147.47;100.00;64613.53;5019569;28;45461;-77
2022/08/21 05:29:10;;;;;;;;;3.33;3.00;;;;;-147.47;100.00;64613.53;5010129;28;46117;-77
2022/08/21 05:31:36;;;;;;;;;6.00;3.33;;;;;-147.47;100.00;64613.53;5013443;28;45478;-77
2022/08/21 05:34:02;;;;;;;;;3.67;3.00;;;;;-147.47;100.00;64613.53;5032014;28;45538;-77
2022/08/21 05:36:28;;;;;;;;;4.33;4.00;;;;;-147.47;100.00;64613.53;5022616;28;45551;-77
2022/08/21 05:38:53;;;;;;;;;5.00;4.00;;;;;-147.47;100.00;64613.53;5004719;28;47107;-77
2022/08/21 05:41:19;;;;;;;;;4.00;4.00;;;;;-147.47;100.00;64613.53;5028051;28;45780;-78
2022/08/21 05:43:44;;;;;;;;;4.67;4.33;;;;;-147.47;100.00;64613.53;5011373;28;45405;-78
2022/08/21 05:46:10;;;;;;;;;2.33;2.33;;;;;-147.47;100.00;64613.53;5010650;28;45884;-78
2022/08/21 05:48:36;;;;;;;;;5.33;3.33;;;;;-147.47;100.00;64613.53;5017255;28;45384;-77
2022/08/21 05:51:07;;;;;;;;;4.67;4.00;;;;;-147.47;100.00;64613.53;5027975;28;45817;-77
2022/08/21 05:53:33;;;;;;;;;4.67;4.00;;;;;-147.47;100.00;64613.53;5028481;28;45515;-77
2022/08/21 05:55:58;;;;;;;;;5.00;4.00;;;;;-147.47;100.00;64613.53;5032620;28;46545;-79
2022/08/21 05:58:24;;;;;;;;;7.33;5.33;;;;;-147.47;100.00;64613.53;5014746;28;48100;-77
2022/08/21 06:00:50;;;;;;;;;7.67;4.67;;;;;-147.47;100.00;64613.53;5017704;28;45579;-79
2022/08/21 06:03:25;;;;;;;;;6.00;5.00;;;;;-147.47;100.00;64613.53;5028778;28;45377;-73
2022/08/21 06:05:51;;;;;;;;;6.33;4.33;;;;;-147.47;100.00;64613.53;5007068;28;46002;-74
2022/08/21 06:08:17;;;;;;;;;5.00;5.00;;;;;-147.47;100.00;64613.53;4986507;28;47436;-73
2022/08/21 06:10:44;;;;;;;;;6.33;5.00;;;;;-147.47;100.00;64613.53;5017464;28;45689;-77
2022/08/21 06:13:11;;;;;;;;;4.00;4.00;;;;;-147.47;100.00;64613.53;5003739;28;45765;-77
2022/08/21 06:15:36;;;;;;;;;5.33;4.00;;;;;-147.47;100.00;64613.53;5025769;28;45587;-77
2022/08/21 06:18:02;;;;;;;;;4.33;3.33;;;;;-147.47;100.00;64613.53;5021453;28;46336;-79
2022/08/21 06:20:28;;;;;;;;;5.00;5.00;;;;;-147.47;100.00;64613.53;5026276;28;45428;-77
2022/08/21 06:22:53;;;;;;;;;5.33;4.67;;;;;-147.47;100.00;64613.53;5003831;28;45369;-78
2022/08/21 06:25:19;;;;;;;;;5.75;4.75;;;;;-147.47;100.00;64613.53;5026348;28;45502;-78
2022/08/21 06:27:46;;;;;;;;;6.67;4.00;;;;;-147.47;100.00;64613.53;5010259;28;47002;-77
2022/08/21 06:30:13;;;;;;;;;6.00;4.25;;;;;-147.47;100.00;64613.53;5020756;28;45487;-78
2022/08/21 06:32:38;;;;;;;;;4.75;3.50;;;;;-147.47;100.00;64613.53;4995523;28;45418;-75
2022/08/21 06:35:04;;;;;;;;;5.00;4.00;;;;;-147.47;100.00;64613.53;5021963;28;45340;-74
2022/08/21 06:37:30;;;;;;;;;6.50;4.00;;;;;-147.47;100.00;64613.53;5030684;28;46738;-74
2022/08/21 06:39:55;;;;;;;;;16.67;12.67;;;;;-147.47;100.00;64613.53;5034478;28;45415;-78
2022/08/21 06:42:21;;;;;;;;;6.00;4.75;;;;;-147.47;100.00;64613.53;5032790;28;45828;-77
2022/08/21 06:44:49;;;;;;;;;8.50;5.00;;;;;-147.47;100.00;64613.53;5012522;28;46205;-77
2022/08/21 06:47:15;;;;;;;;;5.00;5.00;;;;;-147.47;100.00;64613.53;5030298;28;45711;-78
2022/08/21 06:49:41;;;;;;;;;6.50;5.25;;;;;-147.47;100.00;64613.53;5034620;28;45407;-77
2022/08/21 06:52:11;;;;;;;;;5.25;5.00;;;;;-147.47;100.00;64613.53;5022265;28;45455;-77
2022/08/21 06:54:38;;;;;;;;;5.75;5.00;;;;;-147.47;100.00;64613.53;5025293;28;47116;-79
2022/08/21 06:57:03;;;;;;;;;4.75;4.75;;;;;-147.47;100.00;64613.53;5016780;28;47212;-80
2022/08/21 06:59:29;;;;;;;;;6.25;5.25;;;;;-147.47;100.00;64613.53;5026470;28;45692;-74
2022/08/21 07:01:54;;;;;;;;;5.00;5.00;;;;;-147.47;100.00;64613.53;5019613;28;46416;-79
2022/08/21 07:04:20;;;;;;;;;7.75;7.00;;;;;-147.47;100.00;64613.53;5019128;28;45388;-78
2022/08/21 07:06:45;;;;;;;;;7.00;7.00;;;;;-147.47;100.00;64613.53;5032246;28;45572;-78
2022/08/21 07:09:11;;;;;;;;;6.00;4.75;;;;;-147.47;100.00;64613.53;5017383;28;45513;-78
2022/08/21 07:11:37;;;;;;;;;8.00;5.00;;;;;-147.47;100.00;64613.53;5026732;28;45391;-79
2022/08/21 07:14:03;;;;;;;;;5.00;5.00;;;;;-147.47;100.00;64613.53;5035529;28;45645;-78
2022/08/21 07:16:28;;;;;;;;;5.00;3.00;;;;;-147.47;100.00;64613.53;5035007;28;45422;-77
2022/08/21 07:18:54;;;;;;;;;4.75;4.00;;;;;-147.47;100.00;64613.53;5034848;28;45851;-75
2022/08/21 07:21:19;;;;;;;;;4.00;4.00;;;;;-147.47;100.00;64613.53;5044105;28;45607;-79
2022/08/21 07:23:48;;;;;;;;;6.50;6.25;;;;;-147.47;100.00;64613.53;5031885;28;46159;-79
2022/08/21 07:26:16;;;;;;;;;5.50;4.50;;;;;-147.47;100.00;64613.53;5051906;28;45438;-81
2022/08/21 07:28:42;;;;;;;;;6.25;4.75;;;;;-147.47;100.00;64613.53;5033111;28;45983;-79
2022/08/21 07:31:10;;;;;;;;;5.00;4.75;;;;;-147.47;100.00;64613.53;5051956;28;45629;-75
2022/08/21 07:33:36;;;;;;;;;6.00;5.75;;;;;-147.47;100.00;64613.53;5039541;28;45927;-75
2022/08/21 07:36:02;;;;;;;;;4.00;4.00;;;;;-147.47;100.00;64613.53;5048094;28;46301;-75
2022/08/21 07:38:28;;;;;;;;;5.75;5.00;;;;;-147.47;100.00;64613.53;5050372;28;45760;-74
2022/08/21 07:40:58;;;;;;;;;7.50;5.00;;;;;-147.47;100.00;64613.53;5051223;28;45676;-73
2022/08/21 07:43:24;;;;;;;;;4.00;4.00;;;;;-147.47;100.00;64613.53;5050624;28;45375;-74
2022/08/21 07:45:49;;;;;;;;;5.75;5.25;;;;;-147.47;100.00;64613.53;5030891;28;46587;-74
2022/08/21 07:48:15;;;;;;;;;4.00;4.00;;;;;-147.47;100.00;64613.53;5047842;28;45676;-75
2022/08/21 07:50:41;;;;;;;;;6.50;3.25;;;;;-147.47;100.00;64613.53;5048415;28;45422;-74
2022/08/21 07:53:07;;;;;;;;;5.00;4.50;;;;;-147.47;100.00;64613.53;5039164;28;45493;-77
2022/08/21 07:55:32;;;;;;;;;7.00;5.00;;;;;-147.47;100.00;64613.53;5049990;28;45432;-74
2022/08/21 07:57:58;;;;;;;;;5.75;5.75;;;;;-147.47;100.00;64613.53;5027088;28;45318;-75
2022/08/21 08:00:26;;;;;;;;;6.50;5.00;;;;;-147.47;100.00;64613.53;5048605;28;45470;-75
2022/08/21 08:02:53;;;;;;;;;6.00;6.00;;;;;-147.47;100.00;64613.53;5041133;28;45381;-74
2022/08/21 08:05:27;;;;;;;;;6.25;5.25;;;;;-147.47;100.00;64613.53;5048360;28;45172;-72
2022/08/21 08:07:53;;;;;;;;;8.25;5.00;;;;;-147.47;100.00;64613.53;5049808;28;45431;-77
2022/08/21 08:10:20;;;;;;;;;5.25;5.25;;;;;-147.47;100.00;64613.53;5050988;28;45405;-78
2022/08/21 08:12:46;;;;;;;;;8.25;5.75;;;;;-147.47;100.00;64613.53;5027413;28;44812;-78
2022/08/21 08:15:20;;;;;;;;;5.00;5.00;;;;;-147.47;100.00;64613.53;5039085;28;46273;-77
2022/08/21 08:17:45;;;;;;;;;6.00;4.75;;;;;-147.47;100.00;64613.53;5050030;28;45423;-76
2022/08/21 08:20:13;;;;;;;;;3.67;3.67;;;;;-147.47;100.00;64613.53;5059316;28;45763;-78
2022/08/21 08:22:39;;;;;;;;;6.00;6.00;;;;;-147.47;100.00;64613.53;5054075;28;45328;-78
2022/08/21 08:25:06;;;;;;;;;5.00;5.00;;;;;-147.47;100.00;64613.53;5050228;28;45360;-77
2022/08/21 08:27:32;;;;;;;;;5.00;5.00;;;;;-147.47;100.00;64613.53;5032034;28;44830;-78
2022/08/21 08:29:58;;;;;;;;;5.00;4.25;;;;;-147.47;100.00;64613.53;5030417;28;44825;-74
2022/08/21 08:32:24;;;;;;;;;8.00;5.50;;;;;-147.47;100.00;64613.53;5048530;28;45713;-77
2022/08/21 08:34:51;;;;;;;;;9.50;7.50;;;;;-147.47;100.00;64613.53;5048351;28;46051;-74
2022/08/21 08:37:18;;;;;;;;;6.00;5.50;;;;;-147.47;100.00;64613.53;5044284;28;45856;-74
2022/08/21 08:39:44;;;;;;;;;6.25;5.25;;;;;-147.47;100.00;64613.53;5048082;28;45404;-74
2022/08/21 08:42:29;;;;;;;;;8.25;5.25;;;;;-147.47;100.00;64613.53;5047336;28;44977;-74
2022/08/21 08:45:03;;;;;;;;;5.75;5.00;;;;;-147.47;100.00;64613.53;5047690;28;45311;-74
2022/08/21 08:47:30;;;;;;;;;6.50;5.00;;;;;-147.47;100.00;64613.53;5029855;28;45407;-74
2022/08/21 08:50:21;;;;;;;;;5.25;4.00;;;;;-147.47;100.00;64613.53;5046892;28;45405;-73
2022/08/21 08:53:03;;;;;;;;;3.00;3.00;;;;;-147.47;100.00;64613.53;5046868;28;45406;-74
2022/08/21 08:55:37;;;;;;;;;6.00;5.00;;;;;-147.47;100.00;64613.53;5030602;28;45694;-75
2022/08/21 08:58:02;;;;;;;;;6.50;5.50;;;;;-147.47;100.00;64613.53;5046955;28;45370;-73
2022/08/21 09:00:28;;;;;;;;;9.50;6.25;;;;;-147.47;100.00;64613.53;5047377;28;45650;-74
2022/08/21 09:02:59;;;;;;;;;9.00;6.50;;;;;-147.47;100.00;64613.53;5046323;28;45306;-74
2022/08/21 09:05:30;;;;;;;;;4.00;4.00;;;;;-147.47;100.00;64613.53;5046851;28;47056;-74
2022/08/21 09:08:14;;;;;;;;;6.25;4.75;;;;;-147.47;100.00;64613.53;5046966;28;45412;-75
2022/08/21 09:11:12;;;;;;;;;6.25;4.00;;;;;-147.47;100.00;64613.53;5025840;28;45779;-74
2022/08/21 09:14:12;;;;;;;;;4.75;4.75;;;;;-147.47;100.00;64613.53;5027398;28;44837;-74
2022/08/21 09:16:54;;;;;;;;;6.75;6.00;;;;;-147.47;100.00;64613.53;5045825;28;45309;-76
2022/08/21 09:20:00;;;;;;;;;7.00;6.00;;;;;-147.47;100.00;64613.53;5028980;28;45369;-75
2022/08/21 09:22:44;;;;;;;;;3.25;3.25;;;;;-147.47;100.00;64613.53;5040349;28;44846;-76
2022/08/21 09:25:30;;;;;;;;;6.00;5.75;;;;;-147.47;100.00;64613.53;5035655;28;45482;-75
2022/08/21 09:27:56;;;;;;;;;6.00;6.00;;;;;-147.47;100.00;64613.53;5049206;28;46294;-78
2022/08/21 09:30:30;;;;;;;;;7.25;4.00;;;;;-147.47;100.00;64613.53;5048334;28;45410;-79
2022/08/21 09:32:56;;;;;;;;;4.00;3.00;;;;;-147.47;100.00;64613.53;5050288;28;45280;-79
2022/08/21 09:35:24;;;;;;;;;6.75;4.75;;;;;-147.47;100.00;64613.53;5048462;28;45311;-77
2022/08/21 09:37:54;;;;;;;;;1.00;1.00;;;;;-147.47;100.00;64613.53;5049038;28;45388;-78
2022/08/21 09:40:30;;;;;;;;;5.25;3.25;;;;;-147.47;100.00;64613.53;5029023;28;45469;-77
2022/08/21 09:43:18;;;;;;;;;6.50;5.75;;;;;-147.47;100.00;64613.53;5021603;28;45492;-79
2022/08/21 09:45:45;;;;;;;;;4.75;3.50;;;;;-147.47;100.00;64613.53;5051605;28;44758;-79
2022/08/21 09:48:14;;;;;;;;;9.00;3.75;;;;;-147.47;100.00;64613.53;5032898;28;47454;-79
2022/08/21 09:50:42;;;;;;;;;3.00;3.00;;;;;-147.47;100.00;64613.53;5051908;28;45585;-78
2022/08/21 09:53:18;;;;;;;;;3.50;3.50;;;;;-147.47;100.00;64613.53;5051531;28;44758;-79
2022/08/21 09:58:49;;;;;;;;;3.00;3.00;;;;;-147.47;100.00;64613.53;5021926;28;45779;-75
2022/08/21 10:01:19;;;;;;;;;4.00;4.00;;;;;-147.47;100.00;64613.53;5054346;28;45377;-77
2022/08/21 10:03:46;;;;;;;;;4.75;4.75;;;;;-147.47;100.00;64613.53;5050091;28;45290;-75
2022/08/21 10:06:23;;;;;;;;;3.75;3.00;;;;;-147.47;100.00;64613.53;5049806;28;45456;-75
2022/08/21 10:08:48;;;;;;;;;3.00;2.25;;;;;-147.47;100.00;64613.53;5050046;28;45387;-75
2022/08/21 10:11:17;;;;;;;;;3.00;3.00;;;;;-147.47;100.00;64613.53;5041081;28;45592;-74
2022/08/21 10:14:01;;;;;;;;;2.75;2.75;;;;;-147.47;100.00;64613.53;5051367;28;45557;-77
2022/08/21 10:16:48;;;;;;;;;5.00;4.00;;;;;-147.47;100.00;64613.53;5048426;28;45803;-74
2022/08/21 10:19:38;;;;;;;;;2.00;2.00;;;;;-147.47;100.00;64613.53;5049748;28;45097;-76
2022/08/21 10:22:17;;;;;;;;;2.00;2.00;;;;;-147.47;100.00;64613.53;5048844;28;44732;-74
2022/08/21 10:25:01;;;;;;;;;3.00;3.00;;;;;-147.47;100.00;64613.53;5026767;28;45357;-76
2022/08/21 10:27:42;;;;;;;;;3.25;3.00;;;;;-147.47;100.00;64613.53;5023385;28;46594;-75
2022/08/21 10:30:21;;;;;;;;;4.00;4.00;;;;;-147.47;100.00;64613.53;5027435;28;46911;-77
2022/08/21 10:33:00;;;;;;;;;4.25;4.25;;;;;-147.47;100.00;64613.53;5043382;28;45406;-74
2022/08/21 10:35:31;;;;;;;;;9.00;7.33;;;;;-147.47;100.00;64613.53;5030139;28;45452;-74
2022/08/21 10:38:13;;;;;;;;;4.50;3.75;;;;;-147.47;100.00;64613.53;5046474;28;45750;-76
2022/08/21 10:41:03;;;;;;;;;6.00;5.00;;;;;-147.47;100.00;64613.53;5033155;28;45424;-75
2022/08/21 10:43:32;;;;;;;;;3.00;2.00;;;;;-147.47;100.00;64613.53;5047340;28;45892;-75
2022/08/21 10:46:19;;;;;;;;;2.50;2.00;;;;;-147.47;100.00;64613.53;5047210;28;45407;-75
2022/08/21 10:49:08;;;;;;;;;2.25;2.00;;;;;-147.47;100.00;64613.53;5047846;28;45549;-77
2022/08/21 10:51:55;;;;;;;;;4.50;2.75;;;;;-147.47;100.00;64613.53;5044297;28;45464;-76
2022/08/21 10:54:59;;;;;;;;;4.00;4.00;;;;;-147.47;100.00;64613.53;5048271;28;45412;-75
2022/08/21 10:57:42;;;;;;;;;2.00;2.00;;;;;-147.47;100.00;64613.53;5012006;28;45088;-76
2022/08/21 11:00:11;;;;;;;;;4.00;3.75;;;;;-147.47;100.00;64613.53;5024368;28;46646;-74
2022/08/21 11:02:45;;;;;;;;;4.00;3.75;;;;;-147.47;100.00;64613.53;5049065;28;46069;-74
2022/08/21 11:05:13;;;;;;;;;2.25;2.25;;;;;-147.47;100.00;64613.53;5045277;28;45426;-75
2022/08/21 11:07:53;;;;;;;;;3.75;3.75;;;;;-147.47;100.00;64613.53;5049582;28;45960;-78
2022/08/21 11:11:04;;;;;;;;;4.00;4.00;;;;;-147.47;100.00;64613.53;5044773;28;46840;-75
2022/08/21 11:14:12;;;;;;;;;3.75;3.00;;;;;-147.47;100.00;64613.53;5023640;28;46932;-75
2022/08/21 11:16:53;;;;;;;;;4.25;3.75;;;;;-147.47;100.00;64613.53;5017870;28;45559;-74
2022/08/21 11:19:37;;;;;;;;;7.00;5.25;;;;;-147.47;100.00;64613.53;5048649;28;45341;-75
2022/08/21 11:22:15;;;;;;;;;11.33;8.00;;;;;-147.47;100.00;64613.53;5032182;28;45353;-78